Time;durP1;ratioP1;P1;durP2;ratioP2;P2;SDS_P1;SDS_P2;PMS_P1;PMS_P2;Temp;Humidity;BMP_temperature;BMP_pressure;BME280_temperature;BME280_humidity;BME280_pressure;Samples;Min_cycle;Max_cycle;Signal;HPM_P1;HPM_P2
2022/10/12 00:00:52;;;;;;;6.63;6.03;;;;;;;11.67;91.10;98477.66;6083987;29;20228;-71
2022/10/12 00:03:54;;;;;;;6.87;6.27;;;;;;;11.64;91.11;98472.59;6069663;29;20356;-71
2022/10/12 00:06:56;;;;;;;7.13;6.43;;;;;;;11.58;91.30;98476.50;6086257;29;20254;-71
2022/10/12 00:09:58;;;;;;;8.73;6.87;;;;;;;11.57;91.30;98469.56;6086562;29;20238;-71
2022/10/12 00:13:00;;;;;;;6.83;6.13;;;;;;;11.54;91.32;98479.50;6061554;29;20244;-71
2022/10/12 00:16:03;;;;;;;9.47;6.87;;;;;;;11.50;91.83;98475.38;6075369;29;20656;-71
2022/10/12 00:19:05;;;;;;;7.33;6.63;;;;;;;11.50;91.91;98486.78;6086698;29;20239;-71
2022/10/12 00:22:07;;;;;;;6.83;6.13;;;;;;;11.51;91.75;98479.69;6065799;29;20230;-70
2022/10/12 00:25:10;;;;;;;8.27;6.77;;;;;;;11.50;92.15;98484.16;6085775;29;20242;-71
2022/10/12 00:28:12;;;;;;;7.30;6.40;;;;;;;11.48;91.78;98483.41;6083705;29;20244;-71
2022/10/12 00:31:17;;;;;;;6.27;5.60;;;;;;;11.44;91.71;98493.38;6085943;29;20281;-71
2022/10/12 00:34:18;;;;;;;13.30;7.43;;;;;;;11.37;91.94;98491.28;6084782;29;20243;-71
2022/10/12 00:37:20;;;;;;;7.63;6.63;;;;;;;11.31;91.93;98489.03;6086334;29;20243;-70
2022/10/12 00:40:22;;;;;;;7.97;6.77;;;;;;;11.25;92.16;98478.91;6078141;29;20239;-71
2022/10/12 00:43:33;;;;;;;7.87;6.73;;;;;;;11.20;91.96;98481.88;6071333;29;20235;-70
2022/10/12 00:46:39;;;;;;;12.37;6.63;;;;;;;11.10;91.99;98488.75;6085655;29;20326;-71
2022/10/12 00:49:44;;;;;;;11.27;6.60;;;;;;;11.06;92.44;98489.94;6086946;29;20237;-71
2022/10/12 00:52:56;;;;;;;8.10;6.47;;;;;;;11.03;92.28;98492.78;6089776;29;20297;-71
2022/10/12 00:56:01;;;;;;;8.67;6.57;;;;;;;11.02;92.55;98484.00;6085433;29;20239;-71
2022/10/12 00:59:07;;;;;;;8.77;6.60;;;;;;;11.03;92.42;98490.13;6068460;29;20246;-71
2022/10/12 01:02:11;;;;;;;8.50;6.63;;;;;;;10.96;92.56;98489.72;6071948;29;20247;-71
2022/10/12 01:05:13;;;;;;;9.50;6.60;;;;;;;10.88;92.63;98485.91;6081118;29;20247;-71
2022/10/12 01:08:15;;;;;;;7.23;6.53;;;;;;;10.81;92.86;98490.75;6084810;29;20247;-71
2022/10/12 01:11:17;;;;;;;9.97;6.37;;;;;;;10.77;92.87;98480.53;6085678;29;20261;-71
2022/10/12 01:14:19;;;;;;;7.53;6.50;;;;;;;10.75;93.17;98480.63;6085232;29;20235;-71
2022/10/12 01:17:47;;;;;;;6.60;5.70;;;;;;;10.74;92.78;98489.50;6085985;29;20243;-70
2022/10/12 01:21:12;;;;;;;6.53;5.93;;;;;;;10.67;93.12;98483.78;6085123;29;20623;-71
2022/10/12 01:24:53;;;;;;;8.63;5.60;;;;;;;10.62;92.71;98477.97;6085300;29;20231;-71
2022/10/12 01:28:13;;;;;;;7.03;5.50;;;;;;;10.54;92.89;98485.56;6084938;29;20239;-71
2022/10/12 01:31:35;;;;;;;7.97;5.07;;;;;;;10.49;93.19;98484.16;6085291;29;20241;-71
2022/10/12 01:35:08;;;;;;;7.90;5.63;;;;;;;10.46;92.96;98487.88;6088823;29;20271;-71
2022/10/12 01:38:48;;;;;;;7.13;5.60;;;;;;;10.42;92.81;98494.28;6090757;29;20253;-71
2022/10/12 01:41:55;;;;;;;6.00;5.30;;;;;;;10.35;93.20;98485.09;6089984;29;20242;-71
2022/10/12 01:45:06;;;;;;;7.60;5.90;;;;;;;10.33;92.86;98485.19;6089328;29;20241;-71
2022/10/12 01:48:08;;;;;;;6.13;5.27;;;;;;;10.31;92.97;98481.81;6089314;29;20235;-71
2022/10/12 01:51:15;;;;;;;7.50;5.63;;;;;;;10.27;92.50;98480.34;6086369;29;20613;-71
2022/10/12 01:54:44;;;;;;;9.83;5.33;;;;;;;10.21;92.74;98485.16;6089161;29;20234;-71
2022/10/12 01:58:10;;;;;;;5.77;5.00;;;;;;;10.13;92.74;98485.63;6088479;29;20252;-71
2022/10/12 02:01:24;;;;;;;8.30;5.60;;;;;;;10.12;92.70;98486.56;6072081;29;20223;-71
2022/10/12 02:04:35;;;;;;;6.70;6.10;;;;;;;10.10;92.77;98484.97;6066001;29;20238;-71
2022/10/12 02:07:49;;;;;;;7.17;5.93;;;;;;;10.03;92.44;98486.34;6087850;29;20387;-71
2022/10/12 02:11:11;;;;;;;7.60;5.53;;;;;;;9.98;92.96;98481.38;6088995;29;20245;-71
2022/10/12 02:14:16;;;;;;;9.67;6.33;;;;;;;9.96;92.72;98486.75;6088301;29;20233;-71
2022/10/12 02:17:21;;;;;;;7.17;5.83;;;;;;;9.99;93.38;98486.53;6089436;29;20237;-71
2022/10/12 02:20:26;;;;;;;6.73;5.70;;;;;;;10.03;92.66;98489.81;6089572;29;20844;-71
2022/10/12 02:23:28;;;;;;;9.33;5.83;;;;;;;10.02;92.86;98487.28;6089320;29;20823;-71
2022/10/12 02:26:34;;;;;;;9.23;6.23;;;;;;;9.98;92.79;98474.28;6089248;29;20773;-71
2022/10/12 02:29:38;;;;;;;7.33;5.90;;;;;;;9.99;93.19;98477.75;6087407;29;20219;-71
2022/10/12 02:32:53;;;;;;;7.20;5.90;;;;;;;10.06;92.96;98475.59;6072076;29;20333;-71
2022/10/12 02:36:04;;;;;;;8.10;7.10;;;;;;;10.09;93.09;98478.84;6088684;29;20238;-70
2022/10/12 02:39:15;;;;;;;11.27;6.37;;;;;;;10.09;92.75;98481.50;6088395;29;20711;-71
2022/10/12 02:42:22;;;;;;;9.90;6.17;;;;;;;10.09;93.35;98476.22;6071904;29;20211;-71
2022/10/12 02:45:26;;;;;;;8.30;6.63;;;;;;;10.13;93.43;98485.63;6088049;29;20231;-70
2022/10/12 02:48:29;;;;;;;7.40;6.50;;;;;;;10.15;93.26;98477.63;6088289;29;20645;-71
2022/10/12 02:51:33;;;;;;;10.47;6.60;;;;;;;10.19;93.33;98473.84;6079854;29;20235;-70
2022/10/12 02:54:35;;;;;;;6.20;5.60;;;;;;;10.20;93.03;98486.94;6069422;29;20341;-70
2022/10/12 02:57:38;;;;;;;7.87;7.07;;;;;;;10.20;93.38;98476.38;6064554;29;20239;-71
2022/10/12 03:00:40;;;;;;;7.60;6.50;;;;;;;10.22;92.90;98471.88;6048375;29;20266;-71
2022/10/12 03:03:43;;;;;;;6.70;5.97;;;;;;;10.21;92.81;98469.31;6064927;29;20242;-70
2022/10/12 03:06:45;;;;;;;8.13;6.20;;;;;;;10.21;93.38;98472.81;6064994;29;20246;-70
2022/10/12 03:09:46;;;;;;;10.90;6.80;;;;;;;10.22;93.41;98477.16;6064974;29;20236;-71
2022/10/12 03:12:48;;;;;;;6.97;6.27;;;;;;;10.19;92.63;98465.94;6064673;29;20325;-71
2022/10/12 03:15:51;;;;;;;9.27;7.10;;;;;;;10.18;93.07;98473.00;6063269;29;20246;-70
2022/10/12 03:18:53;;;;;;;8.70;7.30;;;;;;;10.18;93.48;98465.09;6062731;29;20266;-70
2022/10/12 03:21:55;;;;;;;9.83;7.00;;;;;;;10.19;93.25;98477.34;6065428;29;20230;-70
2022/10/12 03:24:59;;;;;;;7.83;6.93;;;;;;;10.20;93.61;98472.91;6064584;29;20230;-71
2022/10/12 03:28:01;;;;;;;7.47;6.77;;;;;;;10.21;93.28;98464.91;6063635;29;20487;-70
2022/10/12 03:31:03;;;;;;;8.47;6.90;;;;;;;10.20;93.19;98465.84;6063891;29;20239;-70
2022/10/12 03:34:05;;;;;;;10.20;6.70;;;;;;;10.19;92.96;98472.06;6064741;29;20239;-70
2022/10/12 03:37:07;;;;;;;7.30;6.53;;;;;;;10.21;93.25;98462.25;6065109;29;20230;-71
2022/10/12 03:40:09;;;;;;;9.47;7.13;;;;;;;10.24;93.01;98461.22;6065930;29;20240;-71
2022/10/12 03:43:12;;;;;;;11.60;7.20;;;;;;;10.23;93.51;98468.28;6063761;29;20249;-71
2022/10/12 03:46:13;;;;;;;7.47;6.77;;;;;;;10.23;93.36;98467.44;6065077;29;20243;-71
2022/10/12 03:49:15;;;;;;;8.03;6.20;;;;;;;10.23;93.40;98470.06;6063516;29;20243;-71
2022/10/12 03:52:17;;;;;;;8.03;6.60;;;;;;;10.24;92.87;98466.50;6056330;29;20243;-70
2022/10/12 03:55:19;;;;;;;9.73;7.00;;;;;;;10.26;93.52;98465.44;6062160;29;20633;-70
2022/10/12 03:58:21;;;;;;;8.23;7.23;;;;;;;10.27;93.14;98467.16;6057046;29;20260;-70
2022/10/12 04:01:24;;;;;;;10.23;7.27;;;;;;;10.25;93.44;98463.75;6057247;29;20240;-70
2022/10/12 04:04:26;;;;;;;7.97;7.17;;;;;;;10.25;93.57;98469.03;6060569;29;20360;-71
2022/10/12 04:07:28;;;;;;;8.17;7.37;;;;;;;10.28;93.15;98468.81;6063705;29;20726;-71
2022/10/12 04:10:30;;;;;;;9.53;6.70;;;;;;;10.30;93.43;98469.56;6064183;29;20291;-71
2022/10/12 04:13:32;;;;;;;8.33;7.53;;;;;;;10.31;93.69;98471.25;6063876;29;20239;-71
2022/10/12 04:16:34;;;;;;;9.70;7.03;;;;;;;10.29;93.55;98477.56;6064073;29;20242;-70
2022/10/12 04:19:36;;;;;;;9.07;7.10;;;;;;;10.28;93.31;98468.00;6062571;29;20321;-71
2022/10/12 04:22:38;;;;;;;8.33;7.43;;;;;;;10.27;93.75;98467.16;6063010;29;20256;-70
2022/10/12 04:25:41;;;;;;;7.87;7.10;;;;;;;10.25;93.93;98465.56;6062895;29;20249;-70
2022/10/12 04:28:43;;;;;;;8.10;7.30;;;;;;;10.17;93.91;98467.81;6060985;29;20239;-70
2022/10/12 04:31:45;;;;;;;11.33;7.77;;;;;;;10.08;94.41;98461.34;6062804;29;20242;-70
2022/10/12 04:34:47;;;;;;;9.60;7.57;;;;;;;10.09;94.73;98459.53;6062578;29;20746;-70
2022/10/12 04:37:49;;;;;;;10.20;7.60;;;;;;;10.07;94.62;98462.31;6062586;29;20241;-71
2022/10/12 04:40:51;;;;;;;9.33;7.53;;;;;;;10.02;94.96;98468.81;6062712;29;20242;-70
2022/10/12 04:43:53;;;;;;;9.53;8.40;;;;;;;9.93;94.47;98460.56;6062617;29;20394;-70
2022/10/12 04:46:55;;;;;;;9.93;7.23;;;;;;;9.81;95.25;98455.22;6062558;29;20707;-70
2022/10/12 04:49:56;;;;;;;7.90;7.20;;;;;;;9.76;95.53;98452.06;6063008;29;20247;-70
2022/10/12 04:52:58;;;;;;;9.30;7.87;;;;;;;9.73;95.32;98446.97;6044392;29;20232;-70
2022/10/12 04:56:05;;;;;;;8.63;7.73;;;;;;;9.68;95.67;98439.38;6080058;29;20329;-70
2022/10/12 04:59:07;;;;;;;8.93;7.17;;;;;;;9.61;95.40;98443.34;6070623;29;20230;-70
2022/10/12 05:02:09;;;;;;;8.37;7.40;;;;;;;9.51;96.22;98448.34;6084313;29;20232;-70
2022/10/12 05:05:11;;;;;;;9.87;7.53;;;;;;;9.38;95.60;98444.81;6085649;29;20238;-70
2022/10/12 05:08:13;;;;;;;8.87;7.47;;;;;;;9.27;96.02;98449.91;6070501;29;20257;-70
2022/10/12 05:11:15;;;;;;;10.00;7.50;;;;;;;9.17;96.19;98460.19;6089605;29;20649;-71
2022/10/12 05:14:16;;;;;;;8.20;7.10;;;;;;;9.13;96.39;98465.72;6090136;29;20238;-70
2022/10/12 05:17:18;;;;;;;8.70;6.87;;;;;;;9.08;96.52;98465.19;6090129;29;20255;-70
2022/10/12 05:20:20;;;;;;;11.17;7.23;;;;;;;9.04;95.81;98468.94;6090921;29;20618;-71
2022/10/12 05:23:22;;;;;;;9.57;6.87;;;;;;;8.98;95.28;98471.94;6074333;29;20264;-71
2022/10/12 05:26:24;;;;;;;7.73;6.93;;;;;;;8.93;95.35;98484.53;6072919;29;20233;-71
2022/10/12 05:29:26;;;;;;;8.63;7.33;;;;;;;8.86;95.55;98484.91;6089435;29;20242;-71
2022/10/12 05:32:28;;;;;;;8.47;7.13;;;;;;;8.77;95.38;98489.88;6072554;29;20612;-71
2022/10/12 05:35:30;;;;;;;7.27;6.57;;;;;;;8.75;96.03;98489.13;6088669;29;20891;-71
2022/10/12 05:38:32;;;;;;;8.47;6.80;;;;;;;8.78;94.85;98495.03;6072457;29;20227;-71
2022/10/12 05:41:34;;;;;;;11.60;8.03;;;;;;;8.78;94.61;98502.09;6088341;29;20233;-71
2022/10/12 05:44:36;;;;;;;9.70;7.33;;;;;;;8.76;95.06;98506.59;6072257;29;20229;-70
2022/10/12 05:47:40;;;;;;;13.07;8.30;;;;;;;8.78;94.91;98512.63;6071837;29;20608;-71
2022/10/12 05:50:42;;;;;;;7.83;7.03;;;;;;;8.79;95.34;98509.03;6055792;29;20736;-71
2022/10/12 05:53:44;;;;;;;8.50;6.87;;;;;;;8.84;94.69;98518.38;6077994;29;20246;-71
2022/10/12 05:56:46;;;;;;;8.17;7.37;;;;;;;8.89;94.55;98508.41;6088614;29;20237;-70
2022/10/12 05:59:48;;;;;;;10.27;7.00;;;;;;;8.94;94.27;98500.22;6088944;29;20236;-71
2022/10/12 06:02:50;;;;;;;9.40;6.37;;;;;;;9.09;94.34;98504.56;6088508;29;20230;-71
2022/10/12 06:05:52;;;;;;;7.77;6.97;;;;;;;9.23;94.05;98506.34;6088833;29;20240;-70
2022/10/12 06:08:54;;;;;;;9.90;7.10;;;;;;;9.31;93.13;98517.25;6089366;29;20758;-71
2022/10/12 06:11:56;;;;;;;7.07;6.30;;;;;;;9.44;93.11;98510.28;6087568;29;20275;-70
2022/10/12 06:14:58;;;;;;;7.57;6.77;;;;;;;9.60;92.60;98505.75;6088567;29;20234;-71
2022/10/12 06:18:00;;;;;;;7.90;7.10;;;;;;;9.75;92.74;98508.34;6088611;29;20235;-71
2022/10/12 06:21:02;;;;;;;7.87;6.80;;;;;;;9.89;92.81;98516.22;6070400;29;20228;-71
2022/10/12 06:24:24;;;;;;;7.07;6.13;;;;;;;9.97;91.84;98524.50;6087920;29;20226;-71
2022/10/12 06:27:26;;;;;;;9.13;6.33;;;;;;;10.03;91.73;98523.25;6088877;29;20228;-71
2022/10/12 06:30:28;;;;;;;7.67;6.90;;;;;;;10.14;92.17;98526.03;6087927;29;20663;-71
2022/10/12 06:33:30;;;;;;;7.70;6.53;;;;;;;10.24;91.80;98530.66;6088191;29;20234;-71
2022/10/12 06:36:32;;;;;;;7.30;6.60;;;;;;;10.32;91.77;98530.16;6088059;29;20320;-71
2022/10/12 06:39:34;;;;;;;7.00;6.30;;;;;;;10.39;91.57;98534.06;6071181;29;20230;-70
2022/10/12 06:42:36;;;;;;;7.13;6.43;;;;;;;10.48;91.23;98522.06;6088083;29;20246;-71
2022/10/12 06:45:40;;;;;;;7.23;5.57;;;;;;;10.57;91.11;98538.16;6088018;29;20251;-71
2022/10/12 06:48:41;;;;;;;7.47;6.27;;;;;;;10.66;90.58;98532.25;6087358;29;20242;-71
2022/10/12 06:51:44;;;;;;;6.57;5.83;;;;;;;10.77;90.80;98533.31;6087454;29;20247;-71
2022/10/12 06:54:46;;;;;;;7.10;6.33;;;;;;;10.87;90.37;98540.53;6087580;29;20394;-70
2022/10/12 06:57:47;;;;;;;7.20;6.03;;;;;;;10.94;89.88;98541.78;6087695;29;20235;-71
2022/10/12 07:00:51;;;;;;;6.93;6.07;;;;;;;11.05;89.82;98536.63;6067856;29;20330;-71
2022/10/12 07:03:53;;;;;;;6.20;5.60;;;;;;;11.18;89.34;98528.69;6086805;29;20245;-70
2022/10/12 07:07:01;;;;;;;7.90;6.03;;;;;;;11.32;88.84;98525.09;6071189;29;20591;-70
2022/10/12 07:10:04;;;;;;;9.43;6.60;;;;;;;11.54;87.79;98537.66;6087386;29;20391;-70
2022/10/12 07:13:06;;;;;;;7.43;5.60;;;;;;;11.73;87.08;98541.53;6087573;29;20492;-71
2022/10/12 07:16:08;;;;;;;7.50;5.30;;;;;;;11.89;86.25;98535.16;6088134;29;20238;-71
2022/10/12 07:19:10;;;;;;;7.27;5.70;;;;;;;12.01;86.03;98542.22;6087552;29;20233;-70
2022/10/12 07:22:12;;;;;;;6.90;4.60;;;;;;;12.01;82.74;98542.22;6087794;29;20237;-70
2022/10/12 07:25:14;;;;;;;6.40;4.20;;;;;;;12.03;80.27;98537.66;6087211;29;20241;-71
2022/10/12 07:28:18;;;;;;;4.93;4.07;;;;;;;12.06;78.50;98540.09;6087469;29;20724;-70
2022/10/12 07:31:20;;;;;;;4.03;3.70;;;;;;;12.08;77.31;98532.88;6087537;29;20243;-70
2022/10/12 07:34:22;;;;;;;5.73;4.10;;;;;;;12.11;76.06;98537.94;6086994;29;20238;-70
2022/10/12 07:37:24;;;;;;;6.23;4.10;;;;;;;12.11;74.59;98525.56;6085940;29;20237;-70
2022/10/12 07:40:26;;;;;;;5.73;4.10;;;;;;;12.20;73.85;98529.34;6086334;29;20748;-70
2022/10/12 07:43:29;;;;;;;5.30;4.37;;;;;;;12.24;72.04;98527.31;6086841;29;20257;-70
2022/10/12 07:46:31;;;;;;;7.10;4.20;;;;;;;12.25;70.84;98529.84;6085436;29;20580;-70
2022/10/12 07:49:32;;;;;;;5.57;3.70;;;;;;;12.32;70.14;98527.59;6086720;29;20232;-71
2022/10/12 07:52:34;;;;;;;4.20;3.70;;;;;;;12.49;69.95;98528.03;6072383;29;20236;-72
2022/10/12 07:55:36;;;;;;;5.47;3.90;;;;;;;12.70;69.54;98519.44;6087859;29;20240;-71
2022/10/12 07:58:38;;;;;;;5.53;3.80;;;;;;;12.82;68.84;98519.34;6069448;29;20231;-70
2022/10/12 08:01:40;;;;;;;4.97;3.47;;;;;;;12.96;68.16;98515.66;6076550;29;20246;-71
2022/10/12 08:04:42;;;;;;;5.30;3.77;;;;;;;13.17;67.49;98519.34;6076245;29;20810;-71
2022/10/12 08:07:44;;;;;;;5.77;4.10;;;;;;;13.35;66.23;98519.72;6090945;29;20321;-70
2022/10/12 08:10:46;;;;;;;5.13;4.03;;;;;;;13.55;65.59;98523.47;6086554;29;20269;-71
2022/10/12 08:13:48;;;;;;;6.17;3.97;;;;;;;13.70;64.82;98521.38;6086686;29;20606;-71
2022/10/12 08:16:50;;;;;;;4.77;3.53;;;;;;;13.81;64.08;98518.72;6090106;29;20593;-71
2022/10/12 08:19:52;;;;;;;4.07;3.73;;;;;;;14.03;63.76;98519.53;6086139;29;20228;-71
2022/10/12 08:22:54;;;;;;;4.87;3.53;;;;;;;14.19;63.30;98512.97;6085912;29;20739;-71
2022/10/12 08:25:57;;;;;;;4.97;4.30;;;;;;;14.07;61.76;98512.19;6090676;29;20250;-71
2022/10/12 08:29:01;;;;;;;7.97;4.37;;;;;;;14.05;61.44;98514.09;6088293;29;20242;-71
2022/10/12 08:32:03;;;;;;;7.07;4.57;;;;;;;13.98;61.70;98516.38;6085182;29;20828;-71
2022/10/12 08:35:05;;;;;;;7.83;4.73;;;;;;;14.14;61.89;98510.69;6085515;29;20874;-70
2022/10/12 08:38:10;;;;;;;4.67;4.07;;;;;;;14.48;62.24;98519.41;6085934;29;20230;-71
2022/10/12 08:41:44;;;;;;;7.50;4.63;;;;;;;14.53;61.01;98511.06;6069666;29;20231;-71
2022/10/12 08:44:58;;;;;;;7.47;3.70;;;;;;;14.76;60.89;98520.63;6057756;29;20570;-71
2022/10/12 08:48:17;;;;;;;6.37;4.20;;;;;;;14.86;60.70;98510.06;6084579;29;20232;-71
2022/10/12 08:51:23;;;;;;;6.57;3.73;;;;;;;15.07;61.46;98521.53;6084453;29;20704;-71
2022/10/12 08:54:42;;;;;;;8.20;4.40;;;;;;;15.06;60.17;98522.50;6084670;29;20246;-71
2022/10/12 08:57:44;;;;;;;4.97;3.63;;;;;;;15.17;60.95;98514.47;6085166;29;20376;-71
2022/10/12 09:00:58;;;;;;;7.13;4.30;;;;;;;15.25;60.81;98514.66;6083435;29;20248;-71
2022/10/12 09:04:19;;;;;;;5.90;4.47;;;;;;;15.15;59.65;98511.09;6081678;29;20621;-71
2022/10/12 09:07:21;;;;;;;6.17;4.50;;;;;;;15.04;60.68;98516.47;6085278;29;20291;-71
2022/10/12 09:10:42;;;;;;;9.77;4.03;;;;;;;15.01;60.84;98516.72;6084815;29;20741;-71
2022/10/12 09:13:54;;;;;;;8.93;4.33;;;;;;;15.01;60.37;98514.06;6084473;29;20236;-71
2022/10/12 09:16:59;;;;;;;7.77;4.47;;;;;;;15.12;60.52;98511.34;6084795;29;20234;-71
2022/10/12 09:20:16;;;;;;;5.73;4.30;;;;;;;15.35;59.18;98507.56;6084929;29;20239;-71
2022/10/12 09:23:26;;;;;;;6.33;5.07;;;;;;;15.56;59.26;98517.34;6067598;29;20239;-71
2022/10/12 09:26:36;;;;;;;7.23;4.97;;;;;;;15.58;58.91;98516.22;6069174;29;20719;-71
2022/10/12 09:29:39;;;;;;;8.17;4.67;;;;;;;15.68;59.01;98514.44;6085631;29;20243;-71
2022/10/12 09:33:18;;;;;;;7.57;4.27;;;;;;;15.70;57.40;98504.50;6084859;29;20283;-71
2022/10/12 09:36:23;;;;;;;6.03;4.73;;;;;;;15.66;57.54;98505.75;6068493;29;20789;-71
2022/10/12 09:39:36;;;;;;;6.47;4.10;;;;;;;15.69;58.30;98508.13;6085418;29;20231;-71
2022/10/12 09:42:38;;;;;;;5.90;4.40;;;;;;;15.83;58.30;98515.75;6085122;29;20250;-70
2022/10/12 09:45:41;;;;;;;4.13;3.30;;;;;;;15.96;57.54;98518.19;6084011;29;20231;-71
2022/10/12 09:48:57;;;;;;;7.87;4.67;;;;;;;16.06;57.47;98511.06;6085629;29;20610;-71
2022/10/12 09:51:59;;;;;;;7.00;4.10;;;;;;;16.05;57.51;98516.50;6073775;29;20241;-71
2022/10/12 09:55:10;;;;;;;7.13;4.17;;;;;;;16.13;57.21;98514.84;6078269;29;20700;-71
2022/10/12 09:58:19;;;;;;;6.33;4.10;;;;;;;16.37;100.00;60274.75;6088307;29;20236;-71
2022/10/12 10:01:26;;;;;;;8.40;4.40;;;;;;;-144.22;100.00;60274.75;6082242;29;20331;-71
2022/10/12 10:04:29;;;;;;;7.27;4.03;;;;;;;-144.22;100.00;60274.75;6073045;29;20348;-71
2022/10/12 10:07:34;;;;;;;6.17;4.60;;;;;;;-144.22;100.00;60274.75;6087412;29;20231;-70
2022/10/12 10:10:36;;;;;;;7.43;4.30;;;;;;;-144.22;100.00;60274.75;6088226;29;20242;-71
2022/10/12 10:13:46;;;;;;;5.20;3.93;;;;;;;-144.22;100.00;60274.75;6088430;29;20279;-72
2022/10/12 10:16:50;;;;;;;6.27;3.83;;;;;;;-144.22;100.00;60274.75;6088629;29;20239;-70
2022/10/12 10:19:55;;;;;;;4.27;3.80;;;;;;;-144.22;100.00;60274.75;6088664;29;20238;-71
2022/10/12 10:22:58;;;;;;;6.13;3.90;;;;;;;-144.22;100.00;60274.75;6071122;29;20232;-71
2022/10/12 10:26:15;;;;;;;3.83;3.17;;;;;;;-144.22;100.00;60274.75;6090972;29;20235;-70
2022/10/12 10:29:31;;;;;;;3.87;3.07;;;;;;;-144.22;100.00;60274.75;6087334;29;20712;-71
2022/10/12 10:32:35;;;;;;;5.03;3.53;;;;;;;-144.22;100.00;60274.75;6088851;29;20276;-71
2022/10/12 10:35:37;;;;;;;6.30;3.43;;;;;;;18.43;100.00;60274.75;6087725;29;20243;-72
2022/10/12 10:39:01;;;;;;;5.43;3.20;;;;;;;-144.22;100.00;60274.75;6087920;29;20232;-71
2022/10/12 10:42:11;;;;;;;4.90;2.80;;;;;;;-144.22;100.00;60274.75;6087790;29;20231;-71
2022/10/12 10:45:25;;;;;;;5.77;3.27;;;;;;;-144.22;100.00;60274.75;6091186;29;20205;-71
2022/10/12 10:48:49;;;;;;;8.30;3.00;;;;;;;-144.22;100.00;60274.75;6087882;29;20363;-71
2022/10/12 10:51:56;;;;;;;3.77;2.97;;;;;;;18.53;100.00;60274.75;6078478;29;20622;-71
2022/10/12 10:55:30;;;;;;;8.70;3.33;;;;;;;-144.22;100.00;60274.75;6070973;29;20236;-71
2022/10/12 10:58:58;;;;;;;5.03;3.90;;;;;;;-144.22;100.00;60274.75;6087442;29;20240;-71
2022/10/12 11:02:23;;;;;;;8.13;4.13;;;;;;;17.85;100.00;60274.75;6087376;29;20319;-70
2022/10/12 11:05:34;;;;;;;5.23;3.60;;;;;;;-144.22;100.00;60274.75;6057412;29;20235;-71
2022/10/12 11:08:39;;;;;;;10.00;5.03;;;;;;;-144.22;100.00;60274.75;6088166;29;20224;-70
2022/10/12 11:11:44;;;;;;;9.20;4.93;;;;;;;19.15;100.00;60274.75;6087526;29;20235;-70
2022/10/12 11:14:49;;;;;;;9.80;4.80;;;;;;;-144.22;100.00;60274.75;6086109;29;20280;-71
2022/10/12 11:18:02;;;;;;;8.53;4.10;;;;;;;16.95;49.21;98467.31;6070651;29;20240;-70
2022/10/12 11:21:14;;;;;;;9.83;5.03;;;;;;;16.85;49.57;98465.66;6086847;29;20219;-70
2022/10/12 11:24:39;;;;;;;8.97;5.13;;;;;;;16.82;51.17;98461.44;6087237;29;20233;-71
2022/10/12 11:27:41;;;;;;;6.83;4.40;;;;;;;17.01;50.45;98465.88;6069834;29;20240;-71
2022/10/12 11:30:52;;;;;;;7.63;5.03;;;;;;;17.02;50.62;98469.41;6087045;29;20242;-71
2022/10/12 11:33:57;;;;;;;6.27;4.23;;;;;;;-144.22;100.00;60274.75;6084430;29;20228;-71
2022/10/12 11:37:01;;;;;;;12.17;4.80;;;;;;;-144.22;100.00;60274.75;6069678;29;20239;-71
2022/10/12 11:40:32;;;;;;;6.60;3.97;;;;;;;17.52;100.00;60274.75;6087554;29;20232;-71
2022/10/12 11:44:01;;;;;;;5.60;4.57;;;;;;;-144.22;100.00;60274.75;6086951;29;20696;-71
2022/10/12 11:47:15;;;;;;;7.00;4.07;;;;;;;17.85;100.00;60274.75;6086376;29;20615;-72
2022/10/12 11:50:27;;;;;;;7.20;5.10;;;;;;;17.38;100.00;60274.75;6070235;29;20604;-71
2022/10/12 11:53:56;;;;;;;10.10;4.97;;;;;;;-144.22;100.00;60274.75;6063787;29;20236;-70
2022/10/12 11:57:05;;;;;;;7.97;5.20;;;;;;;17.10;100.00;60274.75;6062796;29;20330;-71
2022/10/12 12:00:22;;;;;;;6.73;4.60;;;;;;;-144.22;100.00;60274.75;6084357;29;20236;-71
2022/10/12 12:03:43;;;;;;;7.83;4.47;;;;;;;-144.22;100.00;60274.75;6085209;29;20235;-71
2022/10/12 12:06:47;;;;;;;6.33;4.97;;;;;;;17.85;100.00;60274.75;6085814;29;20604;-71
2022/10/12 12:09:50;;;;;;;8.17;5.13;;;;;;;-144.22;100.00;60274.75;6087047;29;20314;-71
2022/10/12 12:13:10;;;;;;;7.17;5.20;;;;;;;-144.22;100.00;60274.75;6085660;29;20227;-71
2022/10/12 12:16:12;;;;;;;10.47;5.73;;;;;;;17.85;100.00;60274.75;6085814;29;20236;-71
2022/10/12 12:19:33;;;;;;;8.17;5.53;;;;;;;-144.22;100.00;60274.75;6084852;29;20235;-70
2022/10/12 12:22:49;;;;;;;7.37;5.27;;;;;;;17.52;100.00;60274.75;6085468;29;20299;-72
2022/10/12 12:26:04;;;;;;;10.27;6.67;;;;;;;-144.22;100.00;60274.75;6086208;29;20228;-71
2022/10/12 12:29:25;;;;;;;8.43;5.53;;;;;;;17.80;100.00;60274.75;6087148;29;20247;-71
2022/10/12 12:33:00;;;;;;;9.03;6.27;;;;;;;-144.22;100.00;60274.75;6085848;29;22388;-72
2022/10/12 12:36:05;;;;;;;8.00;4.97;;;;;;;19.15;100.00;60274.75;6084936;29;20855;-71
2022/10/12 12:39:21;;;;;;;6.20;4.57;;;;;;;-144.22;100.00;60274.75;6086046;29;20212;-71
2022/10/12 12:42:31;;;;;;;9.43;5.27;;;;;;;19.13;100.00;60274.75;6068776;29;20239;-72
2022/10/12 12:45:33;;;;;;;8.67;4.87;;;;;;;-144.22;100.00;60274.75;6086342;29;20309;-70
2022/10/12 12:48:41;;;;;;;8.77;5.10;;;;;;;-144.22;100.00;60274.75;6085629;29;20246;-71
2022/10/12 12:51:44;;;;;;;7.67;4.83;;;;;;;-144.22;100.00;60274.75;6084862;29;20244;-70
2022/10/12 12:55:24;;;;;;;8.53;6.17;;;;;;;-144.22;100.00;60274.75;6085107;29;20586;-71
2022/10/12 12:58:54;;;;;;;11.47;5.13;;;;;;;17.85;100.00;60274.75;6084875;29;20614;-70
2022/10/12 13:02:26;;;;;;;10.60;6.33;;;;;;;-144.22;100.00;60274.75;6073900;29;20243;-71
2022/10/12 13:05:34;;;;;;;6.77;5.00;;;;;;;17.70;100.00;60274.75;6082421;29;20730;-70
2022/10/12 13:09:08;;;;;;;6.63;4.93;;;;;;;-144.22;100.00;60274.75;6085333;29;20234;-71
2022/10/12 13:12:22;;;;;;;10.57;5.93;;;;;;;17.67;100.00;60274.75;6052759;29;20235;-72
2022/10/12 13:16:06;;;;;;;8.27;5.20;;;;;;;-144.22;100.00;60274.75;6068691;29;20306;-71
2022/10/12 13:19:13;;;;;;;8.07;5.87;;;;;;;-144.22;100.00;60274.75;6084705;29;20240;-71
2022/10/12 13:22:30;;;;;;;8.73;6.37;;;;;;;-144.22;100.00;60274.75;6067622;29;20231;-71
2022/10/12 13:25:40;;;;;;;8.80;5.77;;;;;;;-144.22;100.00;60274.75;6085239;29;20608;-71
2022/10/12 13:28:44;;;;;;;9.90;6.00;;;;;;;-144.22;100.00;60274.75;6068869;29;20243;-70
2022/10/12 13:31:49;;;;;;;7.73;5.77;;;;;;;-144.22;100.00;60274.75;6089329;29;20675;-71
2022/10/12 13:34:56;;;;;;;11.43;5.50;;;;;;;-144.22;100.00;60274.75;6089299;29;20232;-70
2022/10/12 13:38:13;;;;;;;8.40;5.60;;;;;;;-144.22;100.00;60274.75;6089271;29;20379;-71
2022/10/12 13:41:18;;;;;;;5.60;4.10;;;;;;;-144.22;100.00;60274.75;6089334;29;20240;-70
2022/10/12 13:44:24;;;;;;;10.93;6.03;;;;;;;-144.22;100.00;60274.75;6089721;29;20326;-71
2022/10/12 13:47:31;;;;;;;9.33;5.83;;;;;;;17.85;100.00;60274.75;6089302;29;20232;-71
2022/10/12 13:50:33;;;;;;;8.13;5.70;;;;;;;-144.22;100.00;60274.75;6088808;29;20232;-72
2022/10/12 13:53:38;;;;;;;8.47;5.63;;;;;;;-144.22;100.00;60274.75;6088668;29;20261;-71
2022/10/12 13:56:40;;;;;;;10.97;6.00;;;;;;;-144.22;100.00;60274.75;6090041;29;20232;-70
2022/10/12 13:59:43;;;;;;;8.63;6.10;;;;;;;-144.22;100.00;60274.75;6089838;29;20220;-70
2022/10/12 14:03:05;;;;;;;7.70;5.50;;;;;;;-144.22;100.00;60274.75;6087827;29;20240;-71
2022/10/12 14:06:27;;;;;;;8.70;5.37;;;;;;;-144.22;100.00;60274.75;6089646;29;20246;-71
2022/10/12 14:09:40;;;;;;;10.40;5.70;;;;;;;-144.22;100.00;60274.75;6090146;29;20236;-71
2022/10/12 14:12:45;;;;;;;8.17;4.90;;;;;;;-144.22;100.00;60274.75;6087916;29;20235;-71
2022/10/12 14:15:48;;;;;;;9.30;5.17;;;;;;;-144.22;100.00;60274.75;6088986;29;20228;-71
2022/10/12 14:18:50;;;;;;;7.60;6.23;;;;;;;16.83;53.30;98406.31;6088260;29;20236;-71
2022/10/12 14:21:52;;;;;;;10.30;5.47;;;;;;;16.66;54.06;98412.38;6088896;29;20715;-70
2022/10/12 14:25:20;;;;;;;11.23;4.50;;;;;;;16.82;54.59;98407.28;6087183;29;20235;-70
2022/10/12 14:28:31;;;;;;;11.03;5.37;;;;;;;16.80;53.93;98402.09;6087693;29;20686;-71
2022/10/12 14:31:52;;;;;;;8.00;5.00;;;;;;;16.49;54.70;98397.91;6088316;29;20722;-71
2022/10/12 14:35:17;;;;;;;8.23;5.20;;;;;;;16.43;54.96;98391.34;6087805;29;20228;-72
2022/10/12 14:38:37;;;;;;;7.73;4.67;;;;;;;16.35;55.30;98396.53;6088579;29;20236;-71